createdAt,value
2023-06-04T00:00:46.085Z,456.00
2023-06-04T00:01:46.092Z,457.00
2023-06-04T00:02:46.151Z,458.00
2023-06-04T00:03:46.378Z,456.00
2023-06-04T00:04:46.342Z,454.00
2023-06-04T00:05:46.161Z,452.00
2023-06-04T00:06:46.167Z,453.00
2023-06-04T00:07:46.191Z,455.00
2023-06-04T00:08:46.210Z,457.00
2023-06-04T00:09:46.245Z,456.00
2023-06-04T00:10:46.280Z,457.00
2023-06-04T00:11:46.309Z,460.00
2023-06-04T00:12:46.316Z,460.00
2023-06-04T00:13:46.332Z,462.00
2023-06-04T00:14:46.366Z,462.00
2023-06-04T00:15:46.407Z,464.00
2023-06-04T00:16:46.548Z,464.00
2023-06-04T00:17:46.510Z,466.00
2023-06-04T00:18:46.471Z,464.00
2023-06-04T00:19:46.496Z,463.00
2023-06-04T00:20:46.537Z,466.00
2023-06-04T00:21:46.573Z,466.00
2023-06-04T00:22:46.607Z,466.00
2023-06-04T00:23:46.643Z,465.00
2023-06-04T00:24:46.660Z,468.00
2023-06-04T00:25:46.669Z,470.00
2023-06-04T00:26:46.699Z,469.00
2023-06-04T00:27:46.720Z,469.00
2023-06-04T00:28:46.759Z,471.00
2023-06-04T00:29:46.776Z,470.00
2023-06-04T00:30:46.810Z,469.00
2023-06-04T00:31:46.922Z,469.00
2023-06-04T00:32:46.912Z,469.00
2023-06-04T00:33:46.898Z,471.00
2023-06-04T00:34:46.926Z,470.00
2023-06-04T00:35:46.937Z,469.00
2023-06-04T00:36:46.964Z,468.00
2023-06-04T00:37:46.993Z,468.00
2023-06-04T00:38:47.054Z,468.00
2023-06-04T00:39:47.045Z,467.00
2023-06-04T00:40:47.096Z,467.00
2023-06-04T00:41:47.115Z,466.00
2023-06-04T00:42:47.166Z,468.00
2023-06-04T00:43:47.179Z,465.00
2023-06-04T00:44:47.195Z,463.00
2023-06-04T00:45:47.259Z,465.00
2023-06-04T00:46:47.257Z,468.00
2023-06-04T00:47:47.352Z,467.00
2023-06-04T00:48:47.332Z,468.00
2023-06-04T00:49:47.358Z,469.00
2023-06-04T00:50:47.394Z,470.00
2023-06-04T00:51:47.426Z,470.00
2023-06-04T00:52:47.493Z,473.00
2023-06-04T00:53:47.519Z,472.00
2023-06-04T00:54:47.515Z,472.00
2023-06-04T00:55:47.585Z,471.00
2023-06-04T00:56:47.582Z,470.00
2023-06-04T00:57:47.618Z,471.00
2023-06-04T00:58:47.740Z,470.00
2023-06-04T00:59:47.696Z,469.00
2023-06-04T01:00:47.787Z,472.00
2023-06-04T01:01:47.875Z,470.00
2023-06-04T01:02:47.808Z,470.00
2023-06-04T01:03:47.874Z,469.00
2023-06-04T01:04:47.877Z,469.00
2023-06-04T01:05:47.906Z,470.00
2023-06-04T01:06:47.944Z,471.00
2023-06-04T01:07:47.985Z,474.00
2023-06-04T01:08:48.009Z,475.00
2023-06-04T01:09:48.062Z,476.00
2023-06-04T01:10:48.068Z,478.00
2023-06-04T01:11:48.109Z,478.00
2023-06-04T01:12:48.134Z,476.00
2023-06-04T01:13:48.566Z,472.00
2023-06-04T01:14:48.225Z,473.00
2023-06-04T01:15:48.228Z,475.00
2023-06-04T01:16:48.328Z,475.00
2023-06-04T01:17:48.471Z,475.00
2023-06-04T01:18:48.329Z,473.00
2023-06-04T01:19:48.349Z,468.00
2023-06-04T01:20:48.672Z,469.00
2023-06-04T01:21:48.411Z,471.00
2023-06-04T01:22:48.451Z,473.00
2023-06-04T01:23:48.526Z,471.00
2023-06-04T01:24:48.507Z,470.00
2023-06-04T01:25:48.548Z,468.00
2023-06-04T01:26:48.574Z,465.00
2023-06-04T01:27:48.615Z,466.00
2023-06-04T01:28:48.782Z,467.00
2023-06-04T01:29:48.668Z,470.00
2023-06-04T01:30:48.828Z,470.00
2023-06-04T01:31:48.805Z,470.00
2023-06-04T01:32:48.890Z,469.00
2023-06-04T01:33:48.827Z,468.00
2023-06-04T01:34:48.888Z,468.00
2023-06-04T01:35:48.887Z,468.00
2023-06-04T01:36:48.925Z,469.00
2023-06-04T01:37:48.961Z,472.00
2023-06-04T01:38:48.990Z,473.00
2023-06-04T01:39:49.040Z,475.00
2023-06-04T01:40:49.086Z,477.00
2023-06-04T01:41:49.091Z,479.00
2023-06-04T01:42:49.126Z,478.00
2023-06-04T01:43:49.162Z,476.00
2023-06-04T01:44:49.202Z,477.00
2023-06-04T01:45:49.244Z,478.00
2023-06-04T01:46:49.313Z,479.00
2023-06-04T01:47:49.332Z,474.00
2023-06-04T01:48:49.344Z,477.00
2023-06-04T01:49:49.372Z,476.00
2023-06-04T01:50:49.408Z,478.00
2023-06-04T01:51:49.445Z,478.00
2023-06-04T01:52:49.474Z,480.00
2023-06-04T01:53:49.520Z,482.00
2023-06-04T01:54:49.560Z,484.00
2023-06-04T01:55:49.601Z,481.00
2023-06-04T01:56:49.640Z,479.00
2023-06-04T01:57:49.682Z,478.00
2023-06-04T01:58:49.731Z,478.00
2023-06-04T01:59:49.765Z,479.00
2023-06-04T02:00:49.801Z,480.00
2023-06-04T02:01:49.900Z,479.00
2023-06-04T02:02:49.957Z,477.00
2023-06-04T02:03:49.965Z,475.00
2023-06-04T02:04:49.956Z,474.00
2023-06-04T02:05:49.994Z,473.00
2023-06-04T02:06:50.036Z,474.00
2023-06-04T02:07:50.074Z,477.00
2023-06-04T02:08:50.114Z,476.00
2023-06-04T02:09:50.159Z,476.00
2023-06-04T02:10:50.189Z,475.00
2023-06-04T02:11:50.217Z,481.00
2023-06-04T02:12:50.255Z,481.00
2023-06-04T02:13:50.281Z,479.00
2023-06-04T02:14:50.320Z,479.00
2023-06-04T02:15:50.362Z,475.00
2023-06-04T02:16:50.422Z,476.00
2023-06-04T02:17:50.427Z,476.00
2023-06-04T02:18:50.428Z,477.00
2023-06-04T02:19:50.469Z,480.00
2023-06-04T02:20:50.523Z,479.00
2023-06-04T02:21:50.528Z,482.00
2023-06-04T02:22:50.579Z,483.00
2023-06-04T02:23:50.653Z,481.00
2023-06-04T02:24:50.624Z,478.00
2023-06-04T02:25:50.996Z,476.00
2023-06-04T02:26:50.707Z,474.00
2023-06-04T02:27:50.705Z,476.00
2023-06-04T02:28:50.748Z,479.00
2023-06-04T02:29:50.762Z,475.00
2023-06-04T02:30:50.798Z,477.00
2023-06-04T02:31:50.868Z,480.00
2023-06-04T02:32:52.953Z,482.00
2023-06-04T02:33:50.858Z,484.00
2023-06-04T02:34:50.853Z,481.00
2023-06-04T02:35:50.846Z,483.00
2023-06-04T02:36:50.827Z,484.00
2023-06-04T02:37:50.902Z,487.00
2023-06-04T02:38:50.809Z,486.00
2023-06-04T02:39:50.786Z,483.00
2023-06-04T02:40:50.765Z,483.00
2023-06-04T02:41:50.754Z,484.00
2023-06-04T02:42:50.741Z,482.00
2023-06-04T02:43:50.703Z,485.00
2023-06-04T02:44:50.678Z,486.00
2023-06-04T02:45:50.813Z,486.00
2023-06-04T02:46:50.653Z,485.00
2023-06-04T02:47:50.660Z,483.00
2023-06-04T02:48:50.623Z,483.00
2023-06-04T02:49:50.608Z,483.00
2023-06-04T02:50:50.582Z,483.00
2023-06-04T02:51:50.562Z,482.00
2023-06-04T02:52:50.546Z,481.00
2023-06-04T02:53:50.544Z,484.00
2023-06-04T02:54:50.518Z,483.00
2023-06-04T02:55:50.505Z,484.00
2023-06-04T02:56:50.475Z,484.00
2023-06-04T02:57:50.456Z,486.00
2023-06-04T02:58:50.432Z,486.00
2023-06-04T02:59:50.423Z,485.00
2023-06-04T03:00:50.408Z,481.00
2023-06-04T03:01:50.415Z,477.00
2023-06-04T03:02:50.550Z,476.00
2023-06-04T03:03:50.527Z,477.00
2023-06-04T03:04:50.508Z,478.00
2023-06-04T03:05:50.559Z,478.00
2023-06-04T03:06:50.610Z,479.00
2023-06-04T03:07:50.647Z,478.00
2023-06-04T03:08:50.702Z,477.00
2023-06-04T03:09:50.765Z,477.00
2023-06-04T03:10:50.786Z,477.00
2023-06-04T03:11:50.971Z,478.00
2023-06-04T03:12:50.887Z,479.00
2023-06-04T03:13:50.990Z,476.00
2023-06-04T03:14:50.990Z,476.00
2023-06-04T03:15:51.050Z,477.00
2023-06-04T03:16:51.076Z,475.00
2023-06-04T03:17:51.188Z,474.00
2023-06-04T03:18:51.159Z,474.00
2023-06-04T03:19:51.200Z,474.00
2023-06-04T03:20:51.244Z,475.00
2023-06-04T03:21:51.270Z,474.00
2023-06-04T03:22:51.314Z,474.00
2023-06-04T03:23:51.379Z,477.00
2023-06-04T03:24:51.400Z,478.00
2023-06-04T03:25:51.442Z,478.00
2023-06-04T03:26:51.490Z,474.00
2023-06-04T03:27:51.534Z,473.00
2023-06-04T03:28:51.559Z,473.00
2023-06-04T03:29:51.602Z,477.00
2023-06-04T03:30:51.692Z,479.00
2023-06-04T03:31:51.687Z,476.00
2023-06-04T03:32:51.773Z,476.00
2023-06-04T03:33:51.760Z,477.00
2023-06-04T03:34:51.799Z,478.00
2023-06-04T03:35:51.854Z,475.00
2023-06-04T03:36:51.880Z,474.00
2023-06-04T03:37:51.960Z,475.00
2023-06-04T03:38:51.981Z,476.00
2023-06-04T03:39:51.993Z,476.00
2023-06-04T03:40:52.051Z,479.00
2023-06-04T03:41:52.074Z,481.00
2023-06-04T03:42:52.149Z,483.00
2023-06-04T03:43:52.155Z,485.00
2023-06-04T03:44:52.206Z,486.00
2023-06-04T03:45:52.239Z,486.00
2023-06-04T03:46:52.303Z,484.00
2023-06-04T03:47:52.427Z,482.00
2023-06-04T03:48:52.362Z,480.00
2023-06-04T03:49:52.405Z,480.00
2023-06-04T03:50:52.473Z,481.00
2023-06-04T03:51:52.476Z,482.00
2023-06-04T03:52:52.515Z,482.00
2023-06-04T03:53:52.555Z,482.00
2023-06-04T03:54:52.595Z,482.00
2023-06-04T03:55:52.643Z,483.00
2023-06-04T03:56:52.687Z,483.00
2023-06-04T03:57:52.725Z,483.00
2023-06-04T03:58:52.771Z,481.00
2023-06-04T03:59:52.819Z,476.00
2023-06-04T04:00:52.859Z,478.00
2023-06-04T04:01:52.956Z,477.00
2023-06-04T04:02:53.034Z,476.00
2023-06-04T04:03:53.138Z,479.00
2023-06-04T04:04:53.019Z,480.00
2023-06-04T04:05:53.063Z,476.00
2023-06-04T04:06:53.103Z,476.00
2023-06-04T04:07:53.145Z,476.00
2023-06-04T04:08:53.193Z,475.00
2023-06-04T04:09:53.235Z,478.00
2023-06-04T04:10:53.287Z,480.00
2023-06-04T04:11:53.316Z,479.00
2023-06-04T04:12:53.431Z,478.00
2023-06-04T04:13:53.456Z,479.00
2023-06-04T04:14:53.456Z,478.00
2023-06-04T04:15:53.519Z,476.00
2023-06-04T04:16:53.583Z,479.00
2023-06-04T04:17:53.660Z,478.00
2023-06-04T04:18:53.648Z,476.00
2023-06-04T04:19:53.693Z,473.00
2023-06-04T04:20:53.742Z,472.00
2023-06-04T04:21:53.800Z,479.00
2023-06-04T04:22:53.844Z,479.00
2023-06-04T04:23:53.907Z,478.00
2023-06-04T04:24:53.927Z,482.00
2023-06-04T04:25:53.967Z,482.00
2023-06-04T04:26:54.039Z,478.00
2023-06-04T04:27:54.057Z,475.00
2023-06-04T04:28:54.107Z,479.00
2023-06-04T04:29:54.154Z,476.00
2023-06-04T04:30:54.213Z,474.00
2023-06-04T04:31:54.243Z,475.00
2023-06-04T04:32:54.321Z,475.00
2023-06-04T04:33:54.329Z,476.00
2023-06-04T04:34:54.380Z,477.00
2023-06-04T04:35:54.410Z,480.00
2023-06-04T04:36:54.478Z,482.00
2023-06-04T04:37:54.509Z,481.00
2023-06-04T04:38:54.567Z,480.00
2023-06-04T04:39:54.598Z,480.00
2023-06-04T04:40:54.670Z,479.00
2023-06-04T04:41:54.708Z,479.00
2023-06-04T04:42:54.792Z,483.00
2023-06-04T04:43:54.809Z,480.00
2023-06-04T04:44:54.851Z,481.00
2023-06-04T04:45:54.900Z,482.00
2023-06-04T04:46:54.933Z,480.00
2023-06-04T04:47:55.050Z,484.00
2023-06-04T04:48:55.014Z,483.00
2023-06-04T04:49:55.067Z,481.00
2023-06-04T04:50:55.120Z,479.00
2023-06-04T04:51:55.154Z,479.00
2023-06-04T04:52:55.199Z,482.00
2023-06-04T04:53:55.242Z,480.00
2023-06-04T04:54:55.287Z,481.00
2023-06-04T04:55:55.346Z,480.00
2023-06-04T04:57:11.657Z,479.00
2023-06-04T04:57:55.359Z,478.00
2023-06-04T04:58:55.347Z,477.00
2023-06-04T04:59:55.344Z,477.00
2023-06-04T05:00:55.322Z,474.00
2023-06-04T05:01:55.360Z,473.00
2023-06-04T05:02:55.326Z,472.00
2023-06-04T05:03:55.356Z,470.00
2023-06-04T05:04:55.278Z,471.00
2023-06-04T05:05:55.273Z,471.00
2023-06-04T05:06:55.256Z,474.00
2023-06-04T05:07:55.244Z,476.00
2023-06-04T05:08:55.208Z,480.00
2023-06-04T05:09:55.187Z,482.00
2023-06-04T05:10:55.202Z,483.00
2023-06-04T05:11:55.171Z,484.00
2023-06-04T05:12:55.154Z,485.00
2023-06-04T05:13:55.142Z,484.00
2023-06-04T05:14:55.139Z,484.00
2023-06-04T05:15:55.126Z,482.00
2023-06-04T05:16:55.214Z,483.00
2023-06-04T05:17:55.172Z,482.00
2023-06-04T05:18:55.080Z,482.00
2023-06-04T05:19:55.062Z,481.00
2023-06-04T05:20:55.068Z,483.00
2023-06-04T05:21:55.042Z,482.00
2023-06-04T05:22:55.012Z,482.00
2023-06-04T05:23:55.876Z,481.00
2023-06-04T05:24:54.987Z,482.00
2023-06-04T05:25:55.040Z,482.00
2023-06-04T05:26:55.068Z,485.00
2023-06-04T05:27:55.116Z,485.00
2023-06-04T05:28:57.323Z,483.00
2023-06-04T05:29:55.148Z,478.00
2023-06-04T05:30:55.133Z,475.00
2023-06-04T05:31:55.190Z,476.00
2023-06-04T05:32:55.187Z,477.00
2023-06-04T05:33:55.115Z,479.00
2023-06-04T05:34:55.119Z,479.00
2023-06-04T05:35:55.119Z,477.00
2023-06-04T05:36:55.083Z,476.00
2023-06-04T05:37:55.282Z,479.00
2023-06-04T05:38:55.061Z,482.00
2023-06-04T05:39:55.050Z,479.00
2023-06-04T05:40:55.027Z,478.00
2023-06-04T05:41:55.017Z,477.00
2023-06-04T05:42:55.004Z,477.00
2023-06-04T05:43:55.027Z,479.00
2023-06-04T05:44:55.080Z,479.00
2023-06-04T05:45:55.204Z,480.00
2023-06-04T05:46:55.162Z,480.00
2023-06-04T05:47:55.309Z,483.00
2023-06-04T05:48:55.241Z,481.00
2023-06-04T05:49:55.274Z,478.00
2023-06-04T05:50:55.330Z,478.00
2023-06-04T05:51:55.353Z,480.00
2023-06-04T05:52:55.394Z,481.00
2023-06-04T05:53:55.464Z,480.00
2023-06-04T05:54:55.466Z,479.00
2023-06-04T05:55:55.526Z,478.00
2023-06-04T05:56:55.544Z,475.00
2023-06-04T05:57:55.586Z,474.00
2023-06-04T05:58:55.639Z,475.00
2023-06-04T05:59:55.665Z,478.00
2023-06-04T06:00:55.716Z,476.00
2023-06-04T06:01:55.801Z,477.00
2023-06-04T06:02:55.848Z,479.00
2023-06-04T06:03:55.889Z,477.00
2023-06-04T06:04:55.849Z,475.00
2023-06-04T06:05:55.886Z,475.00
2023-06-04T06:06:55.918Z,476.00
2023-06-04T06:07:55.986Z,476.00
2023-06-04T06:08:55.988Z,475.00
2023-06-04T06:09:56.029Z,472.00
2023-06-04T06:10:56.057Z,471.00
2023-06-04T06:11:56.099Z,468.00
2023-06-04T06:12:56.147Z,468.00
2023-06-04T06:13:56.167Z,468.00
2023-06-04T06:14:56.204Z,468.00
2023-06-04T06:15:56.266Z,470.00
2023-06-04T06:16:56.295Z,472.00
2023-06-04T06:17:56.425Z,473.00
2023-06-04T06:18:56.345Z,473.00
2023-06-04T06:19:56.390Z,472.00
2023-06-04T06:20:56.428Z,471.00
2023-06-04T06:21:56.477Z,471.00
2023-06-04T06:22:56.493Z,471.00
2023-06-04T06:23:56.617Z,472.00
2023-06-04T06:24:56.554Z,474.00
2023-06-04T06:25:56.592Z,472.00
2023-06-04T06:26:56.606Z,474.00
2023-06-04T06:27:56.649Z,474.00
2023-06-04T06:28:56.684Z,473.00
2023-06-04T06:29:56.732Z,472.00
2023-06-04T06:30:56.797Z,471.00
2023-06-04T06:31:56.786Z,471.00
2023-06-04T06:32:57.123Z,471.00
2023-06-04T06:33:56.868Z,470.00
2023-06-04T06:34:56.880Z,472.00
2023-06-04T06:35:56.915Z,472.00
2023-06-04T06:36:56.941Z,472.00
2023-06-04T06:37:56.975Z,469.00
2023-06-04T06:38:57.003Z,470.00
2023-06-04T06:39:57.071Z,469.00
2023-06-04T06:40:57.071Z,467.00
2023-06-04T06:41:57.110Z,468.00
2023-06-04T06:42:57.139Z,468.00
2023-06-04T06:43:57.170Z,468.00
2023-06-04T06:44:57.203Z,468.00
2023-06-04T06:45:57.242Z,468.00
2023-06-04T06:46:57.295Z,469.00
2023-06-04T06:47:57.353Z,468.00
2023-06-04T06:48:57.330Z,468.00
2023-06-04T06:49:57.373Z,470.00
2023-06-04T06:50:57.380Z,469.00
2023-06-04T06:51:57.423Z,471.00
2023-06-04T06:52:57.463Z,470.00
2023-06-04T06:53:57.497Z,471.00
2023-06-04T06:54:57.503Z,470.00
2023-06-04T06:55:57.528Z,471.00
2023-06-04T06:56:57.555Z,470.00
2023-06-04T06:57:57.808Z,474.00
2023-06-04T06:58:57.606Z,473.00
2023-06-04T06:59:57.648Z,474.00
2023-06-04T07:00:57.857Z,472.00
2023-06-04T07:01:57.720Z,472.00
2023-06-04T07:02:57.798Z,470.00
2023-06-04T07:03:57.745Z,468.00
2023-06-04T07:04:57.766Z,467.00
2023-06-04T07:05:57.791Z,469.00
2023-06-04T07:06:57.815Z,468.00
2023-06-04T07:07:57.834Z,466.00
2023-06-04T07:08:57.857Z,466.00
2023-06-04T07:09:57.880Z,463.00
2023-06-04T07:10:57.912Z,465.00
2023-06-04T07:11:57.920Z,468.00
2023-06-04T07:12:57.943Z,467.00
2023-06-04T07:13:57.963Z,468.00
2023-06-04T07:14:57.994Z,466.00
2023-06-04T07:15:58.006Z,467.00
2023-06-04T07:16:58.136Z,465.00
2023-06-04T07:17:58.133Z,465.00
2023-06-04T07:18:58.070Z,464.00
2023-06-04T07:19:58.107Z,462.00
2023-06-04T07:20:58.102Z,461.00
2023-06-04T07:21:58.125Z,463.00
2023-06-04T07:22:58.139Z,463.00
2023-06-04T07:23:58.201Z,464.00
2023-06-04T07:24:58.205Z,460.00
2023-06-04T07:25:58.200Z,458.00
2023-06-04T07:26:58.223Z,459.00
2023-06-04T07:27:58.226Z,458.00
2023-06-04T07:28:58.251Z,458.00
2023-06-04T07:29:58.261Z,460.00
2023-06-04T07:30:58.278Z,459.00
2023-06-04T07:31:58.328Z,461.00
2023-06-04T07:32:58.341Z,462.00
2023-06-04T07:33:58.424Z,462.00
2023-06-04T07:34:58.345Z,462.00
2023-06-04T07:35:58.367Z,462.00
2023-06-04T07:36:58.377Z,459.00
2023-06-04T07:37:58.408Z,459.00
2023-06-04T07:38:58.408Z,457.00
2023-06-04T07:39:58.433Z,459.00
2023-06-04T07:40:58.437Z,461.00
2023-06-04T07:41:58.468Z,461.00
2023-06-04T07:42:58.469Z,463.00
2023-06-04T07:43:58.493Z,462.00
2023-06-04T07:44:58.514Z,462.00
2023-06-04T07:45:58.536Z,461.00
2023-06-04T07:46:58.539Z,460.00
2023-06-04T07:47:58.661Z,459.00
2023-06-04T07:48:58.578Z,458.00
2023-06-04T07:50:03.258Z,457.00
2023-06-04T07:50:58.558Z,459.00
2023-06-04T07:51:58.540Z,462.00
2023-06-04T07:52:58.515Z,463.00
2023-06-04T07:53:58.512Z,461.00
2023-06-04T07:55:00.333Z,461.00
2023-06-04T07:55:58.457Z,460.00
2023-06-04T07:56:58.445Z,461.00
2023-06-04T07:57:58.430Z,464.00
2023-06-04T07:58:58.412Z,465.00
2023-06-04T07:59:58.404Z,465.00
2023-06-04T08:00:58.385Z,461.00
2023-06-04T08:01:58.374Z,459.00
2023-06-04T08:02:58.405Z,459.00
2023-06-04T08:03:58.459Z,460.00
2023-06-04T08:04:58.386Z,457.00
2023-06-04T08:05:58.318Z,458.00
2023-06-04T08:06:58.310Z,460.00
2023-06-04T08:07:58.321Z,460.00
2023-06-04T08:08:58.283Z,461.00
2023-06-04T08:09:58.266Z,464.00
2023-06-04T08:10:58.245Z,461.00
2023-06-04T08:11:58.232Z,461.00
2023-06-04T08:12:58.232Z,455.00
2023-06-04T08:13:58.222Z,455.00
2023-06-04T08:14:58.210Z,455.00
2023-06-04T08:15:58.344Z,456.00
2023-06-04T08:16:58.195Z,455.00
2023-06-04T08:17:58.253Z,453.00
2023-06-04T08:18:58.171Z,451.00
2023-06-04T08:19:58.152Z,453.00
2023-06-04T08:20:58.150Z,455.00
2023-06-04T08:21:58.142Z,454.00
2023-06-04T08:22:58.129Z,456.00
2023-06-04T08:23:58.161Z,458.00
2023-06-04T08:24:58.101Z,459.00
2023-06-04T08:25:58.089Z,459.00
2023-06-04T08:26:58.090Z,459.00
2023-06-04T08:27:58.119Z,459.00
2023-06-04T08:28:58.201Z,459.00
2023-06-04T08:29:58.153Z,457.00
2023-06-04T08:30:58.168Z,458.00
2023-06-04T08:31:58.370Z,456.00
2023-06-04T08:32:58.263Z,458.00
2023-06-04T08:33:58.232Z,453.00
2023-06-04T08:34:58.223Z,451.00
2023-06-04T08:35:58.240Z,451.00
2023-06-04T08:36:58.257Z,451.00
2023-06-04T08:37:58.254Z,448.00
2023-06-04T08:38:58.265Z,448.00
2023-06-04T08:39:58.285Z,449.00
2023-06-04T08:40:58.306Z,451.00
2023-06-04T08:41:58.321Z,450.00
2023-06-04T08:42:58.331Z,449.00
2023-06-04T08:44:00.887Z,450.00
2023-06-04T08:44:58.327Z,450.00
2023-06-04T08:45:58.323Z,453.00
2023-06-04T08:46:58.298Z,450.00
2023-06-04T08:47:58.317Z,451.00
2023-06-04T08:48:59.749Z,451.00
2023-06-04T08:49:58.240Z,449.00
2023-06-04T08:50:58.213Z,449.00
2023-06-04T08:51:58.199Z,448.00
2023-06-04T08:52:58.211Z,451.00
2023-06-04T08:53:58.162Z,453.00
2023-06-04T08:54:58.160Z,453.00
2023-06-04T08:55:58.139Z,450.00
2023-06-04T08:56:58.147Z,450.00
2023-06-04T08:57:58.113Z,449.00
2023-06-04T08:58:58.108Z,449.00
2023-06-04T08:59:58.075Z,449.00
2023-06-04T09:00:58.110Z,448.00
2023-06-04T09:01:58.046Z,452.00
2023-06-04T09:02:58.064Z,453.00
2023-06-04T09:03:58.031Z,452.00
2023-06-04T09:04:57.982Z,450.00
2023-06-04T09:05:57.958Z,448.00
2023-06-04T09:06:57.926Z,448.00
2023-06-04T09:07:57.903Z,451.00
2023-06-04T09:08:58.552Z,455.00
2023-06-04T09:10:12.112Z,456.00
2023-06-04T09:10:57.822Z,453.00
2023-06-04T09:11:57.805Z,457.00
2023-06-04T09:12:57.797Z,456.00
2023-06-04T09:13:57.784Z,454.00
2023-06-04T09:14:57.767Z,453.00
2023-06-04T09:15:57.790Z,452.00
2023-06-04T09:16:57.739Z,452.00
2023-06-04T09:17:57.740Z,449.00
2023-06-04T09:18:57.716Z,447.00
2023-06-04T09:19:57.690Z,445.00
2023-06-04T09:20:57.659Z,450.00
2023-06-04T09:21:57.680Z,452.00
2023-06-04T09:22:57.637Z,456.00
2023-06-04T09:23:57.648Z,457.00
2023-06-04T09:24:57.612Z,454.00
2023-06-04T09:25:57.595Z,454.00
2023-06-04T09:26:57.573Z,454.00
2023-06-04T09:27:57.550Z,453.00
2023-06-04T09:28:57.544Z,452.00
2023-06-04T09:29:57.539Z,454.00
2023-06-04T09:30:57.572Z,452.00
2023-06-04T09:31:57.488Z,451.00
2023-06-04T09:32:57.460Z,452.00
2023-06-04T09:33:57.420Z,454.00
2023-06-04T09:34:57.394Z,456.00
2023-06-04T09:35:57.415Z,455.00
2023-06-04T09:36:57.337Z,452.00
2023-06-04T09:37:57.408Z,451.00
2023-06-04T09:38:57.303Z,449.00
2023-06-04T09:39:57.274Z,450.00
2023-06-04T09:40:57.288Z,451.00
2023-06-04T09:41:57.231Z,454.00
2023-06-04T09:42:57.215Z,456.00
2023-06-04T09:43:57.197Z,456.00
2023-06-04T09:44:57.186Z,454.00
2023-06-04T09:45:57.148Z,455.00
2023-06-04T09:46:57.214Z,455.00
2023-06-04T09:47:57.154Z,451.00
2023-06-04T09:48:57.082Z,451.00
2023-06-04T09:49:57.065Z,452.00
2023-06-04T09:50:57.045Z,453.00
2023-06-04T09:51:57.024Z,455.00
2023-06-04T09:52:56.981Z,453.00
2023-06-04T09:53:56.953Z,451.00
2023-06-04T09:54:56.929Z,450.00
2023-06-04T09:55:56.907Z,451.00
2023-06-04T09:56:56.880Z,450.00
2023-06-04T09:57:56.864Z,450.00
2023-06-04T09:58:56.848Z,449.00
2023-06-04T09:59:56.826Z,450.00
2023-06-04T10:00:56.812Z,454.00
2023-06-04T10:01:56.834Z,458.00
2023-06-04T10:02:56.850Z,459.00
2023-06-04T10:03:56.876Z,458.00
2023-06-04T10:04:56.734Z,458.00
2023-06-04T10:05:56.695Z,460.00
2023-06-04T10:06:56.675Z,461.00
2023-06-04T10:07:56.656Z,462.00
2023-06-04T10:08:56.632Z,457.00
2023-06-04T10:09:56.640Z,454.00
2023-06-04T10:10:56.579Z,458.00
2023-06-04T10:11:56.564Z,459.00
2023-06-04T10:12:56.548Z,455.00
2023-06-04T10:13:56.528Z,457.00
2023-06-04T10:14:56.791Z,456.00
2023-06-04T10:15:56.488Z,455.00
2023-06-04T10:16:56.520Z,451.00
2023-06-04T10:17:56.623Z,451.00
2023-06-04T10:18:56.418Z,453.00
2023-06-04T10:19:56.448Z,454.00
2023-06-04T10:20:56.388Z,457.00
2023-06-04T10:21:56.342Z,456.00
2023-06-04T10:22:56.327Z,455.00
2023-06-04T10:23:56.329Z,456.00
2023-06-04T10:24:56.323Z,455.00
2023-06-04T10:25:56.381Z,453.00
2023-06-04T10:26:56.439Z,452.00
2023-06-04T10:27:56.489Z,454.00
2023-06-04T10:28:56.513Z,454.00
2023-06-04T10:29:56.566Z,455.00
2023-06-04T10:30:56.611Z,456.00
2023-06-04T10:31:56.761Z,456.00
2023-06-04T10:32:56.726Z,456.00
2023-06-04T10:33:56.746Z,455.00
2023-06-04T10:34:56.785Z,453.00
2023-06-04T10:35:56.862Z,453.00
2023-06-04T10:36:56.906Z,451.00
2023-06-04T10:37:56.942Z,453.00
2023-06-04T10:38:57.070Z,453.00
2023-06-04T10:39:57.025Z,453.00
2023-06-04T10:40:57.066Z,455.00
2023-06-04T10:41:57.148Z,454.00
2023-06-04T10:42:57.161Z,455.00
2023-06-04T10:43:57.205Z,455.00
2023-06-04T10:44:58.288Z,454.00
2023-06-04T10:45:57.304Z,453.00
2023-06-04T10:46:57.337Z,453.00
2023-06-04T10:47:57.427Z,453.00
2023-06-04T10:48:57.397Z,457.00
2023-06-04T10:49:57.457Z,456.00
2023-06-04T10:50:57.507Z,453.00
2023-06-04T10:51:57.564Z,455.00
2023-06-04T10:52:57.605Z,455.00
2023-06-04T10:53:57.638Z,456.00
2023-06-04T10:54:57.679Z,458.00
2023-06-04T10:55:57.717Z,458.00
2023-06-04T10:56:57.753Z,457.00
2023-06-04T10:57:57.791Z,458.00
2023-06-04T10:58:57.855Z,458.00
2023-06-04T10:59:57.893Z,458.00
2023-06-04T11:00:57.946Z,457.00
2023-06-04T11:01:58.076Z,456.00
2023-06-04T11:02:58.144Z,456.00
2023-06-04T11:03:58.135Z,457.00
2023-06-04T11:04:58.117Z,458.00
2023-06-04T11:05:58.161Z,459.00
2023-06-04T11:06:58.178Z,459.00
2023-06-04T11:07:58.212Z,458.00
2023-06-04T11:08:58.250Z,456.00
2023-06-04T11:09:58.298Z,455.00
2023-06-04T11:10:58.330Z,455.00
2023-06-04T11:11:58.471Z,456.00
2023-06-04T11:12:58.431Z,456.00
2023-06-04T11:13:58.481Z,456.00
2023-06-04T11:14:58.512Z,458.00
2023-06-04T11:15:58.626Z,456.00
2023-06-04T11:16:58.599Z,457.00
2023-06-04T11:17:58.697Z,459.00
2023-06-04T11:18:58.684Z,460.00
2023-06-04T11:19:58.751Z,457.00
2023-06-04T11:20:58.789Z,455.00
2023-06-04T11:21:58.834Z,455.00
2023-06-04T11:22:58.877Z,457.00
2023-06-04T11:23:58.952Z,456.00
2023-06-04T11:24:58.960Z,454.00
2023-06-04T11:25:59.013Z,452.00
2023-06-04T11:27:58.102Z,453.00
2023-06-04T11:28:59.152Z,452.00
2023-06-04T11:29:59.190Z,450.00
2023-06-04T11:30:59.238Z,451.00
2023-06-04T11:31:59.305Z,451.00
2023-06-04T11:32:59.312Z,451.00
2023-06-04T11:33:59.345Z,450.00
2023-06-04T11:34:59.395Z,450.00
2023-06-04T11:35:59.442Z,451.00
2023-06-04T11:36:59.487Z,453.00
2023-06-04T11:37:59.528Z,453.00
2023-06-04T11:38:59.565Z,457.00
2023-06-04T11:39:59.598Z,459.00
2023-06-04T11:40:59.632Z,457.00
2023-06-04T11:41:59.658Z,454.00
2023-06-04T11:42:59.700Z,455.00
2023-06-04T11:43:59.746Z,453.00
2023-06-04T11:44:59.864Z,453.00
2023-06-04T11:45:59.824Z,452.00
2023-06-04T11:46:59.865Z,451.00
2023-06-04T11:47:59.992Z,453.00
2023-06-04T11:49:00.073Z,452.00
2023-06-04T11:50:00.057Z,452.00
2023-06-04T11:51:00.050Z,451.00
2023-06-04T11:52:00.100Z,450.00
2023-06-04T11:53:00.108Z,448.00
2023-06-04T11:54:00.151Z,447.00
2023-06-04T11:55:00.217Z,450.00
2023-06-04T11:56:00.251Z,452.00
2023-06-04T11:57:00.312Z,454.00
2023-06-04T11:58:00.355Z,453.00
2023-06-04T11:59:00.370Z,450.00
2023-06-04T12:00:00.436Z,449.00
2023-06-04T12:01:00.458Z,446.00
2023-06-04T12:02:00.576Z,445.00
2023-06-04T12:03:00.768Z,444.00
2023-06-04T12:04:00.606Z,443.00
2023-06-04T12:05:00.651Z,444.00
2023-06-04T12:06:00.752Z,446.00
2023-06-04T12:07:00.721Z,446.00
2023-06-04T12:08:00.781Z,444.00
2023-06-04T12:09:00.808Z,444.00
2023-06-04T12:10:00.848Z,442.00
2023-06-04T12:11:00.893Z,440.00
2023-06-04T12:12:00.948Z,440.00
2023-06-04T12:13:00.969Z,444.00
2023-06-04T12:14:01.011Z,443.00
2023-06-04T12:15:01.110Z,441.00
2023-06-04T12:16:01.077Z,442.00
2023-06-04T12:17:01.223Z,445.00
2023-06-04T12:18:01.244Z,447.00
2023-06-04T12:19:01.219Z,444.00
2023-06-04T12:20:01.264Z,443.00
2023-06-04T12:21:01.302Z,446.00
2023-06-04T12:22:01.336Z,449.00
2023-06-04T12:23:01.375Z,448.00
2023-06-04T12:24:01.521Z,449.00
2023-06-04T12:25:01.446Z,451.00
2023-06-04T12:26:01.486Z,451.00
2023-06-04T12:27:01.529Z,447.00
2023-06-04T12:28:01.593Z,447.00
2023-06-04T12:29:01.604Z,446.00
2023-06-04T12:30:01.631Z,448.00